sensor_id;sensor_type;location;lat;lon;timestamp;pressure;altitude;pressure_sealevel;temperature;humidity
10658;BME280;5377;43.276;26.930;2023-02-19T00:01:27;98984.47;;;12.65;56.02
10658;BME280;5377;43.276;26.930;2023-02-19T00:03:59;98986.94;;;12.66;55.71
10658;BME280;5377;43.276;26.930;2023-02-19T00:06:28;98978.88;;;12.66;55.44
10658;BME280;5377;43.276;26.930;2023-02-19T00:08:55;98979.50;;;12.68;55.69
10658;BME280;5377;43.276;26.930;2023-02-19T00:11:26;98973.28;;;12.68;56.18
10658;BME280;5377;43.276;26.930;2023-02-19T00:13:55;98964.41;;;12.67;56.22
10658;BME280;5377;43.276;26.930;2023-02-19T00:16:23;98976.66;;;12.63;56.24
10658;BME280;5377;43.276;26.930;2023-02-19T00:18:51;98972.91;;;12.64;56.10
10658;BME280;5377;43.276;26.930;2023-02-19T00:21:19;98975.00;;;12.62;56.13
10658;BME280;5377;43.276;26.930;2023-02-19T00:23:47;98978.13;;;12.59;55.93
10658;BME280;5377;43.276;26.930;2023-02-19T00:26:15;98964.47;;;12.61;55.68
10658;BME280;5377;43.276;26.930;2023-02-19T00:28:43;98961.41;;;12.57;55.41
10658;BME280;5377;43.276;26.930;2023-02-19T00:31:15;98956.03;;;12.57;55.70
10658;BME280;5377;43.276;26.930;2023-02-19T00:33:43;98954.38;;;12.56;55.31
10658;BME280;5377;43.276;26.930;2023-02-19T00:36:10;98954.56;;;12.61;55.23
10658;BME280;5377;43.276;26.930;2023-02-19T00:38:38;98951.88;;;12.61;55.19
10658;BME280;5377;43.276;26.930;2023-02-19T00:41:05;98949.63;;;12.58;54.79
10658;BME280;5377;43.276;26.930;2023-02-19T00:43:45;98945.28;;;12.57;55.47
10658;BME280;5377;43.276;26.930;2023-02-19T00:46:12;98943.44;;;12.58;55.35
10658;BME280;5377;43.276;26.930;2023-02-19T00:48:39;98933.13;;;12.55;55.90
10658;BME280;5377;43.276;26.930;2023-02-19T00:51:06;98926.09;;;12.54;55.98
10658;BME280;5377;43.276;26.930;2023-02-19T00:53:33;98940.75;;;12.58;55.89
10658;BME280;5377;43.276;26.930;2023-02-19T00:55:59;98924.69;;;12.51;56.25
10658;BME280;5377;43.276;26.930;2023-02-19T00:58:26;98937.44;;;12.56;56.48
10658;BME280;5377;43.276;26.930;2023-02-19T01:00:54;98929.56;;;12.61;56.32
10658;BME280;5377;43.276;26.930;2023-02-19T01:03:21;98925.50;;;12.52;56.34
10658;BME280;5377;43.276;26.930;2023-02-19T01:05:48;98918.66;;;12.56;56.12
10658;BME280;5377;43.276;26.930;2023-02-19T01:08:15;98922.97;;;12.57;56.02
10658;BME280;5377;43.276;26.930;2023-02-19T01:10:42;98924.78;;;12.63;55.61
10658;BME280;5377;43.276;26.930;2023-02-19T01:13:09;98919.25;;;12.58;55.58
10658;BME280;5377;43.276;26.930;2023-02-19T01:15:36;98924.84;;;12.56;55.84
10658;BME280;5377;43.276;26.930;2023-02-19T01:18:05;98915.97;;;12.56;55.72
10658;BME280;5377;43.276;26.930;2023-02-19T01:20:33;98917.22;;;12.53;55.60
10658;BME280;5377;43.276;26.930;2023-02-19T01:22:59;98922.53;;;12.60;55.64
10658;BME280;5377;43.276;26.930;2023-02-19T01:25:26;98918.41;;;12.57;55.03
10658;BME280;5377;43.276;26.930;2023-02-19T01:27:53;98913.88;;;12.58;55.09
10658;BME280;5377;43.276;26.930;2023-02-19T01:30:20;98927.91;;;12.60;54.99
10658;BME280;5377;43.276;26.930;2023-02-19T01:32:46;98928.72;;;12.60;55.20
10658;BME280;5377;43.276;26.930;2023-02-19T01:35:15;98901.94;;;12.54;54.86
10658;BME280;5377;43.276;26.930;2023-02-19T01:37:42;98901.78;;;12.67;54.65
10658;BME280;5377;43.276;26.930;2023-02-19T01:40:09;98905.97;;;12.63;54.60
10658;BME280;5377;43.276;26.930;2023-02-19T01:42:36;98901.34;;;12.70;54.11
10658;BME280;5377;43.276;26.930;2023-02-19T01:45:20;98902.38;;;12.69;54.11
10658;BME280;5377;43.276;26.930;2023-02-19T01:47:51;98905.53;;;12.66;53.74
10658;BME280;5377;43.276;26.930;2023-02-19T01:50:21;98912.16;;;12.63;53.91
10658;BME280;5377;43.276;26.930;2023-02-19T01:52:48;98915.06;;;12.62;53.65
10658;BME280;5377;43.276;26.930;2023-02-19T01:55:15;98903.94;;;12.58;53.76
10658;BME280;5377;43.276;26.930;2023-02-19T01:57:45;98896.34;;;12.55;54.03
10658;BME280;5377;43.276;26.930;2023-02-19T02:00:16;98900.00;;;12.61;53.52
10658;BME280;5377;43.276;26.930;2023-02-19T02:02:47;98898.94;;;12.62;52.75
10658;BME280;5377;43.276;26.930;2023-02-19T02:05:20;98884.75;;;12.55;53.17
10658;BME280;5377;43.276;26.930;2023-02-19T02:07:50;98895.50;;;12.55;53.13
10658;BME280;5377;43.276;26.930;2023-02-19T02:10:34;98895.13;;;12.51;53.04
10658;BME280;5377;43.276;26.930;2023-02-19T02:13:01;98893.66;;;12.55;52.46
10658;BME280;5377;43.276;26.930;2023-02-19T02:15:35;98902.53;;;12.56;52.54
10658;BME280;5377;43.276;26.930;2023-02-19T02:18:09;98892.47;;;12.44;52.36
10658;BME280;5377;43.276;26.930;2023-02-19T02:20:57;98906.69;;;12.52;52.24
10658;BME280;5377;43.276;26.930;2023-02-19T02:23:39;98902.38;;;12.51;52.04
10658;BME280;5377;43.276;26.930;2023-02-19T02:26:28;98910.44;;;12.51;51.92
10658;BME280;5377;43.276;26.930;2023-02-19T02:29:21;98901.13;;;12.46;51.84
10658;BME280;5377;43.276;26.930;2023-02-19T02:31:56;98899.47;;;12.52;51.93
10658;BME280;5377;43.276;26.930;2023-02-19T02:34:26;98893.88;;;12.54;51.84
10658;BME280;5377;43.276;26.930;2023-02-19T02:36:55;98848.06;;;12.24;51.47
10658;BME280;5377;43.276;26.930;2023-02-19T02:39:25;98886.41;;;12.56;51.74
10658;BME280;5377;43.276;26.930;2023-02-19T02:41:55;98888.31;;;12.48;51.67
10658;BME280;5377;43.276;26.930;2023-02-19T02:44:36;98889.53;;;12.53;51.51
10658;BME280;5377;43.276;26.930;2023-02-19T02:47:06;98883.81;;;12.42;51.38
10658;BME280;5377;43.276;26.930;2023-02-19T02:49:53;98886.66;;;12.47;51.28
10658;BME280;5377;43.276;26.930;2023-02-19T02:52:31;98894.56;;;12.42;51.29
10658;BME280;5377;43.276;26.930;2023-02-19T02:55:16;98901.59;;;12.43;51.06
10658;BME280;5377;43.276;26.930;2023-02-19T02:57:44;98838.66;;;12.14;51.23
10658;BME280;5377;43.276;26.930;2023-02-19T03:00:12;98851.22;;;12.14;51.10
10658;BME280;5377;43.276;26.930;2023-02-19T03:02:41;98870.09;;;12.32;51.35
10658;BME280;5377;43.276;26.930;2023-02-19T03:05:11;98892.53;;;12.38;50.73
10658;BME280;5377;43.276;26.930;2023-02-19T03:08:03;98901.19;;;12.40;51.13
10658;BME280;5377;43.276;26.930;2023-02-19T03:10:37;98899.34;;;12.40;50.72
10658;BME280;5377;43.276;26.930;2023-02-19T03:13:10;98900.53;;;12.44;50.10
10658;BME280;5377;43.276;26.930;2023-02-19T03:16:00;98904.00;;;12.52;49.95
10658;BME280;5377;43.276;26.930;2023-02-19T03:18:48;98910.38;;;12.57;49.69
10658;BME280;5377;43.276;26.930;2023-02-19T03:21:36;98911.41;;;12.56;49.59
10658;BME280;5377;43.276;26.930;2023-02-19T03:24:06;98918.34;;;12.64;49.64
10658;BME280;5377;43.276;26.930;2023-02-19T03:26:53;98929.09;;;12.64;49.40
10658;BME280;5377;43.276;26.930;2023-02-19T03:29:22;98918.66;;;12.56;49.43
10658;BME280;5377;43.276;26.930;2023-02-19T03:31:53;98935.59;;;12.74;48.98
10658;BME280;5377;43.276;26.930;2023-02-19T03:34:24;98935.47;;;12.69;49.49
10658;BME280;5377;43.276;26.930;2023-02-19T03:36:56;98936.06;;;12.71;49.14
10658;BME280;5377;43.276;26.930;2023-02-19T03:39:24;98946.88;;;12.65;49.23
10658;BME280;5377;43.276;26.930;2023-02-19T03:41:58;98936.56;;;12.62;49.44
10658;BME280;5377;43.276;26.930;2023-02-19T03:44:36;98951.88;;;12.61;49.31
10658;BME280;5377;43.276;26.930;2023-02-19T03:47:13;98933.50;;;12.58;49.45
10658;BME280;5377;43.276;26.930;2023-02-19T03:49:46;98935.81;;;12.55;49.51
10658;BME280;5377;43.276;26.930;2023-02-19T03:52:17;98935.81;;;12.55;49.88
10658;BME280;5377;43.276;26.930;2023-02-19T03:54:53;98935.22;;;12.53;49.85
10658;BME280;5377;43.276;26.930;2023-02-19T03:57:29;98940.75;;;12.58;49.79
10658;BME280;5377;43.276;26.930;2023-02-19T04:00:03;98936.41;;;12.57;49.36
10658;BME280;5377;43.276;26.930;2023-02-19T04:02:33;98946.72;;;12.60;49.33
10658;BME280;5377;43.276;26.930;2023-02-19T04:05:08;98935.47;;;12.69;49.39
10658;BME280;5377;43.276;26.930;2023-02-19T04:07:41;98928.66;;;12.67;49.63
10658;BME280;5377;43.276;26.930;2023-02-19T04:10:11;98927.91;;;12.60;49.15
10658;BME280;5377;43.276;26.930;2023-02-19T04:12:41;98932.47;;;12.59;49.37
10658;BME280;5377;43.276;26.930;2023-02-19T04:15:12;98935.00;;;12.54;49.80
10658;BME280;5377;43.276;26.930;2023-02-19T04:17:43;98932.56;;;12.46;49.69
10658;BME280;5377;43.276;26.930;2023-02-19T04:20:15;98951.09;;;12.54;49.63
10658;BME280;5377;43.276;26.930;2023-02-19T04:22:43;98935.66;;;12.49;49.52
10658;BME280;5377;43.276;26.930;2023-02-19T04:25:10;98956.91;;;12.51;49.76
10658;BME280;5377;43.276;26.930;2023-02-19T04:27:37;98944.13;;;12.46;49.99
10658;BME280;5377;43.276;26.930;2023-02-19T04:30:07;98949.78;;;12.38;49.99
10658;BME280;5377;43.276;26.930;2023-02-19T04:32:34;98955.78;;;12.34;50.23
10658;BME280;5377;43.276;26.930;2023-02-19T04:35:01;98960.78;;;12.30;50.66
10658;BME280;5377;43.276;26.930;2023-02-19T04:37:29;98976.47;;;12.33;50.47
10658;BME280;5377;43.276;26.930;2023-02-19T04:39:56;98970.16;;;12.21;50.51
10658;BME280;5377;43.276;26.930;2023-02-19T04:42:23;98966.88;;;12.19;50.82
10658;BME280;5377;43.276;26.930;2023-02-19T04:44:49;98972.47;;;12.11;51.21
10658;BME280;5377;43.276;26.930;2023-02-19T04:47:16;98989.84;;;12.08;51.37
10658;BME280;5377;43.276;26.930;2023-02-19T04:49:43;98986.16;;;12.03;51.08
10658;BME280;5377;43.276;26.930;2023-02-19T04:52:10;98983.03;;;12.06;51.53
10658;BME280;5377;43.276;26.930;2023-02-19T04:54:38;98984.50;;;12.02;51.62
10658;BME280;5377;43.276;26.930;2023-02-19T04:57:05;98996.00;;;12.15;51.20
10658;BME280;5377;43.276;26.930;2023-02-19T04:59:32;98999.75;;;12.14;51.31
10658;BME280;5377;43.276;26.930;2023-02-19T05:01:59;98988.41;;;12.06;51.41
10658;BME280;5377;43.276;26.930;2023-02-19T05:04:26;99008.50;;;11.97;51.84
10658;BME280;5377;43.276;26.930;2023-02-19T05:06:52;99010.13;;;11.98;51.84
10658;BME280;5377;43.276;26.930;2023-02-19T05:09:19;99013.88;;;11.97;51.98
10658;BME280;5377;43.276;26.930;2023-02-19T05:11:47;99019.06;;;11.92;51.95
10658;BME280;5377;43.276;26.930;2023-02-19T05:14:14;99022.00;;;11.83;52.47
10658;BME280;5377;43.276;26.930;2023-02-19T05:16:41;99023.25;;;11.81;52.61
10658;BME280;5377;43.276;26.930;2023-02-19T05:19:09;99026.72;;;11.75;52.68
10658;BME280;5377;43.276;26.930;2023-02-19T05:21:36;99018.44;;;11.76;53.17
10658;BME280;5377;43.276;26.930;2023-02-19T05:24:04;99016.41;;;11.72;53.03
10658;BME280;5377;43.276;26.930;2023-02-19T05:26:31;99017.03;;;11.74;53.55
10658;BME280;5377;43.276;26.930;2023-02-19T05:28:59;98996.22;;;11.63;53.57
10658;BME280;5377;43.276;26.930;2023-02-19T05:31:26;99005.91;;;11.70;53.60
10658;BME280;5377;43.276;26.930;2023-02-19T05:33:54;98995.97;;;11.71;53.98
10658;BME280;5377;43.276;26.930;2023-02-19T05:36:21;99003.25;;;11.64;54.18
10658;BME280;5377;43.276;26.930;2023-02-19T05:38:51;98995.38;;;11.69;54.36
10658;BME280;5377;43.276;26.930;2023-02-19T05:41:21;99006.06;;;11.75;54.22
10658;BME280;5377;43.276;26.930;2023-02-19T05:43:48;99016.41;;;11.78;54.10
10658;BME280;5377;43.276;26.930;2023-02-19T05:46:18;99015.38;;;11.79;54.00
10658;BME280;5377;43.276;26.930;2023-02-19T05:48:46;99015.59;;;11.84;53.81
10658;BME280;5377;43.276;26.930;2023-02-19T05:51:15;99016.38;;;11.92;53.67
10658;BME280;5377;43.276;26.930;2023-02-19T05:53:43;99025.25;;;11.92;53.92
10658;BME280;5377;43.276;26.930;2023-02-19T05:56:23;99027.88;;;11.99;53.32
10658;BME280;5377;43.276;26.930;2023-02-19T05:58:52;98978.47;;;11.68;53.44
10658;BME280;5377;43.276;26.930;2023-02-19T06:01:23;99035.94;;;11.99;53.42
10658;BME280;5377;43.276;26.930;2023-02-19T06:03:50;99027.50;;;11.95;53.56
10658;BME280;5377;43.276;26.930;2023-02-19T06:06:18;99047.72;;;11.98;53.73
10658;BME280;5377;43.276;26.930;2023-02-19T06:08:46;99043.81;;;11.94;53.50
10658;BME280;5377;43.276;26.930;2023-02-19T06:11:13;99056.56;;;12.05;53.49
10658;BME280;5377;43.276;26.930;2023-02-19T06:13:40;99051.44;;;11.97;53.54
10658;BME280;5377;43.276;26.930;2023-02-19T06:16:07;99056.34;;;12.06;53.58
10658;BME280;5377;43.276;26.930;2023-02-19T06:18:36;99041.50;;;12.04;53.93
10658;BME280;5377;43.276;26.930;2023-02-19T06:21:06;99046.84;;;12.04;54.20
10658;BME280;5377;43.276;26.930;2023-02-19T06:23:33;99054.47;;;12.07;54.10
10658;BME280;5377;43.276;26.930;2023-02-19T06:26:06;99042.53;;;12.03;54.37
10658;BME280;5377;43.276;26.930;2023-02-19T06:28:33;99078.28;;;11.97;54.73
10658;BME280;5377;43.276;26.930;2023-02-19T06:31:00;99073.69;;;12.04;54.90
10658;BME280;5377;43.276;26.930;2023-02-19T06:33:27;99074.06;;;12.14;54.71
10658;BME280;5377;43.276;26.930;2023-02-19T06:35:57;99084.19;;;12.12;55.15
10658;BME280;5377;43.276;26.930;2023-02-19T06:38:25;99084.78;;;12.21;55.08
10658;BME280;5377;43.276;26.930;2023-02-19T06:40:52;99079.81;;;12.24;55.09
10658;BME280;5377;43.276;26.930;2023-02-19T06:43:18;99090.13;;;12.27;54.85
10658;BME280;5377;43.276;26.930;2023-02-19T06:45:45;99076.09;;;12.25;55.46
10658;BME280;5377;43.276;26.930;2023-02-19T06:48:12;99069.69;;;12.26;55.34
10658;BME280;5377;43.276;26.930;2023-02-19T06:50:39;99064.88;;;12.35;55.24
10658;BME280;5377;43.276;26.930;2023-02-19T06:53:07;99075.34;;;12.43;55.63
10658;BME280;5377;43.276;26.930;2023-02-19T06:55:36;99095.34;;;12.54;55.26
10658;BME280;5377;43.276;26.930;2023-02-19T06:58:04;99100.69;;;12.60;55.46
10658;BME280;5377;43.276;26.930;2023-02-19T07:00:32;99104.09;;;12.74;55.04
10658;BME280;5377;43.276;26.930;2023-02-19T07:02:58;99112.84;;;12.94;54.86
10658;BME280;5377;43.276;26.930;2023-02-19T07:05:25;99123.44;;;13.21;54.54
10658;BME280;5377;43.276;26.930;2023-02-19T07:07:52;99124.97;;;13.35;53.60
10658;BME280;5377;43.276;26.930;2023-02-19T07:10:20;99114.88;;;13.49;53.54
10658;BME280;5377;43.276;26.930;2023-02-19T07:12:47;99111.72;;;13.77;53.07
10658;BME280;5377;43.276;26.930;2023-02-19T07:15:14;99106.63;;;13.87;52.48
10658;BME280;5377;43.276;26.930;2023-02-19T07:17:41;99114.72;;;14.05;51.80
10658;BME280;5377;43.276;26.930;2023-02-19T07:20:08;99119.19;;;14.29;51.61
10658;BME280;5377;43.276;26.930;2023-02-19T07:22:34;99114.81;;;14.47;51.01
10658;BME280;5377;43.276;26.930;2023-02-19T07:25:01;99128.91;;;14.30;51.13
10658;BME280;5377;43.276;26.930;2023-02-19T07:27:30;99131.91;;;14.22;51.24
10658;BME280;5377;43.276;26.930;2023-02-19T07:29:57;99133.50;;;13.93;52.15
10658;BME280;5377;43.276;26.930;2023-02-19T07:32:24;99133.72;;;13.92;52.78
10658;BME280;5377;43.276;26.930;2023-02-19T07:34:51;99121.09;;;13.92;52.75
10658;BME280;5377;43.276;26.930;2023-02-19T07:37:18;99130.81;;;13.93;52.84
10658;BME280;5377;43.276;26.930;2023-02-19T07:39:45;99116.50;;;13.93;53.13
10658;BME280;5377;43.276;26.930;2023-02-19T07:42:11;99115.31;;;14.07;52.36
10658;BME280;5377;43.276;26.930;2023-02-19T07:44:40;99125.84;;;14.27;52.14
10658;BME280;5377;43.276;26.930;2023-02-19T07:47:06;99127.19;;;14.18;52.65
10658;BME280;5377;43.276;26.930;2023-02-19T07:49:33;99138.03;;;14.29;52.48
10658;BME280;5377;43.276;26.930;2023-02-19T07:52:00;99147.06;;;14.53;52.07
10658;BME280;5377;43.276;26.930;2023-02-19T07:54:27;99133.06;;;14.63;51.47
10658;BME280;5377;43.276;26.930;2023-02-19T07:56:54;99132.00;;;14.94;51.11
10658;BME280;5377;43.276;26.930;2023-02-19T07:59:21;99133.66;;;15.07;50.87
10658;BME280;5377;43.276;26.930;2023-02-19T08:01:49;99146.53;;;15.58;49.93
10658;BME280;5377;43.276;26.930;2023-02-19T08:04:33;99132.34;;;15.63;49.26
10658;BME280;5377;43.276;26.930;2023-02-19T08:07:00;99133.34;;;16.08;48.52
10658;BME280;5377;43.276;26.930;2023-02-19T08:09:27;99132.03;;;16.51;47.54
10658;BME280;5377;43.276;26.930;2023-02-19T08:11:54;99123.97;;;16.79;46.85
10658;BME280;5377;43.276;26.930;2023-02-19T08:14:38;99118.56;;;16.96;46.16
10658;BME280;5377;43.276;26.930;2023-02-19T08:17:06;99119.31;;;17.08;45.93
10658;BME280;5377;43.276;26.930;2023-02-19T08:19:33;99118.59;;;17.13;45.89
10658;BME280;5377;43.276;26.930;2023-02-19T08:22:00;99113.31;;;17.23;45.64
10658;BME280;5377;43.276;26.930;2023-02-19T08:24:27;99118.34;;;17.48;45.25
10658;BME280;5377;43.276;26.930;2023-02-19T08:26:53;99114.38;;;17.56;44.85
10658;BME280;5377;43.276;26.930;2023-02-19T08:29:20;99096.56;;;17.98;44.25
10658;BME280;5377;43.276;26.930;2023-02-19T08:31:47;99107.94;;;17.40;44.66
10658;BME280;5377;43.276;26.930;2023-02-19T08:34:15;99111.16;;;17.59;44.93
10658;BME280;5377;43.276;26.930;2023-02-19T08:36:42;99099.75;;;17.57;45.11
10658;BME280;5377;43.276;26.930;2023-02-19T08:39:09;99099.34;;;18.03;44.00
10658;BME280;5377;43.276;26.930;2023-02-19T08:41:36;99109.38;;;18.25;43.48
10658;BME280;5377;43.276;26.930;2023-02-19T08:44:02;99098.22;;;17.99;44.07
10658;BME280;5377;43.276;26.930;2023-02-19T08:46:29;99093.75;;;18.10;43.35
10658;BME280;5377;43.276;26.930;2023-02-19T08:48:56;99105.13;;;18.56;42.93
10658;BME280;5377;43.276;26.930;2023-02-19T08:51:24;99104.88;;;18.57;42.75
10658;BME280;5377;43.276;26.930;2023-02-19T08:53:51;99109.88;;;18.00;43.61
10658;BME280;5377;43.276;26.930;2023-02-19T08:56:18;99107.28;;;18.54;43.42
10658;BME280;5377;43.276;26.930;2023-02-19T08:58:45;99096.06;;;18.99;42.45
10658;BME280;5377;43.276;26.930;2023-02-19T09:01:13;99092.25;;;19.64;41.41
10658;BME280;5377;43.276;26.930;2023-02-19T09:03:41;99086.38;;;19.82;40.46
10658;BME280;5377;43.276;26.930;2023-02-19T09:06:11;99091.41;;;19.63;40.66
10658;BME280;5377;43.276;26.930;2023-02-19T09:08:40;99105.88;;;19.74;40.44
10658;BME280;5377;43.276;26.930;2023-02-19T09:11:07;99079.63;;;19.48;40.84
10658;BME280;5377;43.276;26.930;2023-02-19T09:13:33;99087.00;;;19.15;41.23
10658;BME280;5377;43.276;26.930;2023-02-19T09:16:01;99077.03;;;19.63;40.87
10658;BME280;5377;43.276;26.930;2023-02-19T09:18:28;99098.41;;;19.97;40.25
10658;BME280;5377;43.276;26.930;2023-02-19T09:20:58;99089.88;;;19.41;40.85
10658;BME280;5377;43.276;26.930;2023-02-19T09:23:25;99078.66;;;19.64;40.66
10658;BME280;5377;43.276;26.930;2023-02-19T09:25:57;99085.47;;;19.67;40.37
10658;BME280;5377;43.276;26.930;2023-02-19T09:28:24;99081.88;;;19.56;40.61
10658;BME280;5377;43.276;26.930;2023-02-19T09:30:51;99087.25;;;19.14;41.15
10658;BME280;5377;43.276;26.930;2023-02-19T09:33:18;99099.25;;;18.64;42.19
10658;BME280;5377;43.276;26.930;2023-02-19T09:35:44;99107.22;;;18.49;42.65
10658;BME280;5377;43.276;26.930;2023-02-19T09:38:11;99087.88;;;18.94;42.42
10658;BME280;5377;43.276;26.930;2023-02-19T09:40:38;99070.91;;;18.77;41.92
10658;BME280;5377;43.276;26.930;2023-02-19T09:43:07;99077.72;;;19.11;41.99
10658;BME280;5377;43.276;26.930;2023-02-19T09:45:38;99080.00;;;18.92;42.07
10658;BME280;5377;43.276;26.930;2023-02-19T09:48:05;99081.66;;;19.30;41.41
10658;BME280;5377;43.276;26.930;2023-02-19T09:50:38;99075.13;;;19.69;40.42
10658;BME280;5377;43.276;26.930;2023-02-19T09:53:12;99065.75;;;19.91;39.96
10658;BME280;5377;43.276;26.930;2023-02-19T09:55:41;99047.25;;;19.83;39.86
10658;BME280;5377;43.276;26.930;2023-02-19T09:58:20;99062.34;;;19.64;40.55
10658;BME280;5377;43.276;26.930;2023-02-19T10:00:51;99049.75;;;20.05;39.88
10658;BME280;5377;43.276;26.930;2023-02-19T10:03:22;99046.84;;;20.17;39.61
10658;BME280;5377;43.276;26.930;2023-02-19T10:05:55;99048.41;;;20.03;39.59
10658;BME280;5377;43.276;26.930;2023-02-19T10:08:22;99046.75;;;20.02;39.54
10658;BME280;5377;43.276;26.930;2023-02-19T10:10:49;99042.25;;;20.38;38.89
10658;BME280;5377;43.276;26.930;2023-02-19T10:13:22;99028.19;;;20.66;38.52
10658;BME280;5377;43.276;26.930;2023-02-19T10:15:53;99044.22;;;20.52;38.66
10658;BME280;5377;43.276;26.930;2023-02-19T10:18:21;99036.31;;;20.46;38.88
10658;BME280;5377;43.276;26.930;2023-02-19T10:20:50;99033.91;;;20.60;38.38
10658;BME280;5377;43.276;26.930;2023-02-19T10:23:21;99016.47;;;21.37;37.85
10658;BME280;5377;43.276;26.930;2023-02-19T10:26:02;99014.97;;;21.80;36.69
10658;BME280;5377;43.276;26.930;2023-02-19T10:28:32;99005.34;;;21.98;36.43
10658;BME280;5377;43.276;26.930;2023-02-19T10:31:00;99007.47;;;22.11;35.66
10658;BME280;5377;43.276;26.930;2023-02-19T10:33:27;98990.53;;;22.19;35.37
10658;BME280;5377;43.276;26.930;2023-02-19T10:35:57;98996.53;;;22.16;35.72
10658;BME280;5377;43.276;26.930;2023-02-19T10:38:26;98995.72;;;22.21;35.21
10658;BME280;5377;43.276;26.930;2023-02-19T10:41:00;98978.16;;;21.77;36.24
10658;BME280;5377;43.276;26.930;2023-02-19T10:43:30;98984.66;;;20.86;37.01
10658;BME280;5377;43.276;26.930;2023-02-19T10:46:01;98984.75;;;19.99;38.46
10658;BME280;5377;43.276;26.930;2023-02-19T10:48:31;98961.44;;;20.38;38.09
10658;BME280;5377;43.276;26.930;2023-02-19T10:51:01;98969.13;;;20.57;37.75
10658;BME280;5377;43.276;26.930;2023-02-19T10:53:42;98961.19;;;21.26;36.78
10658;BME280;5377;43.276;26.930;2023-02-19T10:56:11;98964.44;;;21.33;36.51
10658;BME280;5377;43.276;26.930;2023-02-19T10:58:40;98947.50;;;22.06;35.56
10658;BME280;5377;43.276;26.930;2023-02-19T11:01:14;98950.19;;;22.50;34.87
10658;BME280;5377;43.276;26.930;2023-02-19T11:03:43;98943.44;;;22.03;35.20
10658;BME280;5377;43.276;26.930;2023-02-19T11:06:12;98945.41;;;21.88;35.41
10658;BME280;5377;43.276;26.930;2023-02-19T11:08:51;98957.22;;;22.27;35.08
10658;BME280;5377;43.276;26.930;2023-02-19T11:11:31;98933.88;;;22.01;35.26
10658;BME280;5377;43.276;26.930;2023-02-19T11:14:01;98947.44;;;22.16;35.24
10658;BME280;5377;43.276;26.930;2023-02-19T11:16:48;98907.72;;;22.39;34.79
10658;BME280;5377;43.276;26.930;2023-02-19T11:19:23;98944.69;;;22.89;33.87
10658;BME280;5377;43.276;26.930;2023-02-19T11:21:51;98920.19;;;23.61;33.69
10658;BME280;5377;43.276;26.930;2023-02-19T11:24:23;98928.50;;;23.27;33.40
10658;BME280;5377;43.276;26.930;2023-02-19T11:26:51;98926.56;;;23.27;33.38
10658;BME280;5377;43.276;26.930;2023-02-19T11:29:22;98916.63;;;23.60;33.16
10658;BME280;5377;43.276;26.930;2023-02-19T11:31:53;98913.25;;;24.76;31.92
10658;BME280;5377;43.276;26.930;2023-02-19T11:34:28;98836.06;;;23.90;31.70
10658;BME280;5377;43.276;26.930;2023-02-19T11:37:10;98916.84;;;24.58;31.42
10658;BME280;5377;43.276;26.930;2023-02-19T11:39:38;98918.75;;;24.57;31.36
10658;BME280;5377;43.276;26.930;2023-02-19T11:42:23;98938.75;;;23.64;31.93
10658;BME280;5377;43.276;26.930;2023-02-19T11:45:14;98913.41;;;23.06;32.97
10658;BME280;5377;43.276;26.930;2023-02-19T11:47:59;98916.84;;;22.24;33.62
10658;BME280;5377;43.276;26.930;2023-02-19T11:50:43;98926.97;;;21.69;34.91
10658;BME280;5377;43.276;26.930;2023-02-19T11:53:16;98915.13;;;21.14;35.91
10658;BME280;5377;43.276;26.930;2023-02-19T11:55:55;98903.78;;;20.31;37.18
10658;BME280;5377;43.276;26.930;2023-02-19T11:58:38;98897.56;;;20.51;36.97
10658;BME280;5377;43.276;26.930;2023-02-19T12:01:15;98898.91;;;20.84;36.71
10658;BME280;5377;43.276;26.930;2023-02-19T12:04:14;98901.06;;;20.82;36.51
10658;BME280;5377;43.276;26.930;2023-02-19T12:06:54;98879.00;;;20.78;36.48
10658;BME280;5377;43.276;26.930;2023-02-19T12:09:39;98874.38;;;20.03;37.37
10658;BME280;5377;43.276;26.930;2023-02-19T12:12:23;98891.44;;;19.68;38.52
10658;BME280;5377;43.276;26.930;2023-02-19T12:15:26;98886.63;;;19.95;38.39
10658;BME280;5377;43.276;26.930;2023-02-19T12:18:17;98884.72;;;20.01;38.26
10658;BME280;5377;43.276;26.930;2023-02-19T12:20:56;98881.47;;;20.09;38.27
10658;BME280;5377;43.276;26.930;2023-02-19T12:23:44;98888.84;;;20.44;37.67
10658;BME280;5377;43.276;26.930;2023-02-19T12:26:20;98881.75;;;20.22;37.68
10658;BME280;5377;43.276;26.930;2023-02-19T12:31:59;98889.06;;;19.97;38.25
10658;BME280;5377;43.276;26.930;2023-02-19T12:35:01;98887.75;;;20.19;38.24
10658;BME280;5377;43.276;26.930;2023-02-19T12:37:42;98896.09;;;19.77;38.64
10658;BME280;5377;43.276;26.930;2023-02-19T12:40:25;98877.56;;;19.54;38.95
10658;BME280;5377;43.276;26.930;2023-02-19T12:43:04;98879.34;;;19.33;39.48
10658;BME280;5377;43.276;26.930;2023-02-19T12:45:37;98878.78;;;19.26;39.35
10658;BME280;5377;43.276;26.930;2023-02-19T12:48:13;98886.69;;;19.38;39.41
10658;BME280;5377;43.276;26.930;2023-02-19T12:50:45;98886.28;;;19.71;39.09
10658;BME280;5377;43.276;26.930;2023-02-19T12:53:24;98888.53;;;19.89;38.51
10658;BME280;5377;43.276;26.930;2023-02-19T12:55:54;98886.63;;;19.95;38.11
10658;BME280;5377;43.276;26.930;2023-02-19T12:58:27;98883.97;;;20.51;37.42
10658;BME280;5377;43.276;26.930;2023-02-19T13:00:56;98851.56;;;20.29;37.48
10658;BME280;5377;43.276;26.930;2023-02-19T13:03:28;98873.56;;;20.89;36.90
10658;BME280;5377;43.276;26.930;2023-02-19T13:06:01;98872.94;;;21.76;35.86
10658;BME280;5377;43.276;26.930;2023-02-19T13:08:31;98865.97;;;21.55;35.49
10658;BME280;5377;43.276;26.930;2023-02-19T13:11:04;98857.19;;;21.68;35.32
10658;BME280;5377;43.276;26.930;2023-02-19T13:13:35;98868.53;;;22.59;33.97
10658;BME280;5377;43.276;26.930;2023-02-19T13:16:08;98851.59;;;21.89;34.92
10658;BME280;5377;43.276;26.930;2023-02-19T13:18:41;98839.34;;;22.25;34.01
10658;BME280;5377;43.276;26.930;2023-02-19T13:21:10;98848.22;;;22.02;33.99
10658;BME280;5377;43.276;26.930;2023-02-19T13:23:59;98845.63;;;21.82;34.82